Terminal Aerodrome Forecast
Issued by NWS

Home | Current Version | Previous Version | Text Only | Print | Product List | Glossary On
Versions: 1 2 3 4 5 6 7 8 9 10 11 12 13 14 15
339
FTUS45 KABQ 212340
TAFSAF
TAF
KSAF 212340Z 2200/2224 22010KT P6SM VCSH BKN070
     FM220400 36010KT P6SM BKN100
      TEMPO 2213/2217 36012G21KT
     FM221800 13011KT P6SM SCT090 BKN150
     FM222300 13013G23KT P6SM VCTS BKN090CB=

USA.gov is the U.S. government's official web portal to all federal, state and local government web resources and services.